sensor_id;sensor_type;location;lat;lon;timestamp;pressure;altitude;pressure_sealevel;temperature;humidity
75656;BME280;64252;51.094;13.714;2023-08-20T00:01:57;100556.16;;;35.01;39.98
75656;BME280;64252;51.094;13.714;2023-08-20T00:04:26;100559.72;;;34.94;39.77
75656;BME280;64252;51.094;13.714;2023-08-20T00:06:54;100551.56;;;34.87;39.44
75656;BME280;64252;51.094;13.714;2023-08-20T00:09:20;100558.56;;;35.03;39.47
75656;BME280;64252;51.094;13.714;2023-08-20T00:11:45;100554.25;;;35.04;39.10
75656;BME280;64252;51.094;13.714;2023-08-20T00:14:16;100554.66;;;34.95;39.39
75656;BME280;64252;51.094;13.714;2023-08-20T00:16:42;100553.16;;;34.88;39.50
75656;BME280;64252;51.094;13.714;2023-08-20T00:19:08;100551.31;;;35.04;39.24
75656;BME280;64252;51.094;13.714;2023-08-20T00:21:34;100554.44;;;34.93;39.70
75656;BME280;64252;51.094;13.714;2023-08-20T00:24:00;100561.56;;;35.16;38.98
75656;BME280;64252;51.094;13.714;2023-08-20T00:26:26;100557.56;;;35.32;39.02
75656;BME280;64252;51.094;13.714;2023-08-20T00:28:52;100554.41;;;35.30;39.15
75656;BME280;64252;51.094;13.714;2023-08-20T00:31:17;100556.97;;;35.02;39.79
75656;BME280;64252;51.094;13.714;2023-08-20T00:33:43;100568.72;;;35.20;39.14
75656;BME280;64252;51.094;13.714;2023-08-20T00:36:08;100567.34;;;35.40;39.19
75656;BME280;64252;51.094;13.714;2023-08-20T00:38:34;100571.09;;;35.22;39.68
75656;BME280;64252;51.094;13.714;2023-08-20T00:41:01;100566.56;;;35.21;39.57
75656;BME280;64252;51.094;13.714;2023-08-20T00:43:26;100569.41;;;35.45;38.99
75656;BME280;64252;51.094;13.714;2023-08-20T00:45:52;100564.81;;;35.31;39.01
75656;BME280;64252;51.094;13.714;2023-08-20T00:48:18;100556.72;;;35.18;39.37
75656;BME280;64252;51.094;13.714;2023-08-20T00:50:44;100563.94;;;34.99;40.06
75656;BME280;64252;51.094;13.714;2023-08-20T00:53:11;100558.22;;;35.25;39.36
75656;BME280;64252;51.094;13.714;2023-08-20T00:55:38;100564.91;;;35.26;39.27
75656;BME280;64252;51.094;13.714;2023-08-20T00:58:04;100563.78;;;35.29;39.37
75656;BME280;64252;51.094;13.714;2023-08-20T01:00:32;100554.38;;;35.17;39.74
75656;BME280;64252;51.094;13.714;2023-08-20T01:02:58;100569.66;;;35.10;40.10
75656;BME280;64252;51.094;13.714;2023-08-20T01:05:23;100567.03;;;35.25;39.60
75656;BME280;64252;51.094;13.714;2023-08-20T01:08:16;100567.91;;;35.20;39.75
75656;BME280;64252;51.094;13.714;2023-08-20T01:11:01;100566.78;;;35.23;39.56
75656;BME280;64252;51.094;13.714;2023-08-20T01:13:28;100572.91;;;35.25;39.48
75656;BME280;64252;51.094;13.714;2023-08-20T01:15:56;100576.31;;;35.29;39.18
75656;BME280;64252;51.094;13.714;2023-08-20T01:18:24;100578.84;;;35.38;39.55
75656;BME280;64252;51.094;13.714;2023-08-20T01:20:58;100586.94;;;35.13;39.72
75656;BME280;64252;51.094;13.714;2023-08-20T01:26:22;100594.09;;;35.18;39.75
75656;BME280;64252;51.094;13.714;2023-08-20T01:28:52;100594.41;;;35.33;39.60
75656;BME280;64252;51.094;13.714;2023-08-20T01:31:18;100593.94;;;35.29;39.91
75656;BME280;64252;51.094;13.714;2023-08-20T01:33:45;100599.81;;;35.29;40.34
75656;BME280;64252;51.094;13.714;2023-08-20T01:36:10;100601.06;;;35.34;39.51
75656;BME280;64252;51.094;13.714;2023-08-20T01:38:37;100609.34;;;35.35;39.77
75656;BME280;64252;51.094;13.714;2023-08-20T01:41:03;100612.81;;;35.15;40.13
75656;BME280;64252;51.094;13.714;2023-08-20T01:43:29;100599.25;;;35.12;40.14
75656;BME280;64252;51.094;13.714;2023-08-20T01:45:54;100610.28;;;35.06;40.98
75656;BME280;64252;51.094;13.714;2023-08-20T01:48:20;100614.41;;;35.16;40.22
75656;BME280;64252;51.094;13.714;2023-08-20T01:50:46;100621.53;;;35.02;40.62
75656;BME280;64252;51.094;13.714;2023-08-20T01:53:11;100616.25;;;35.19;39.70
75656;BME280;64252;51.094;13.714;2023-08-20T01:55:37;100620.59;;;35.12;39.71
75656;BME280;64252;51.094;13.714;2023-08-20T01:58:03;100616.63;;;35.10;40.20
75656;BME280;64252;51.094;13.714;2023-08-20T02:00:29;100621.53;;;35.02;40.66
75656;BME280;64252;51.094;13.714;2023-08-20T02:02:57;100617.75;;;35.26;40.06
75656;BME280;64252;51.094;13.714;2023-08-20T02:05:22;100623.72;;;35.20;39.75
75656;BME280;64252;51.094;13.714;2023-08-20T02:07:48;100634.00;;;35.08;39.90
75656;BME280;64252;51.094;13.714;2023-08-20T02:10:14;100637.41;;;35.12;40.09
75656;BME280;64252;51.094;13.714;2023-08-20T02:12:40;100643.28;;;35.12;40.30
75656;BME280;64252;51.094;13.714;2023-08-20T02:15:06;100632.28;;;35.18;40.12
75656;BME280;64252;51.094;13.714;2023-08-20T02:17:34;100630.41;;;34.77;40.51
75656;BME280;64252;51.094;13.714;2023-08-20T02:20:01;100637.28;;;34.37;41.41
75656;BME280;64252;51.094;13.714;2023-08-20T02:22:29;100638.34;;;34.83;41.10
75656;BME280;64252;51.094;13.714;2023-08-20T02:24:55;100640.97;;;35.05;40.09
75656;BME280;64252;51.094;13.714;2023-08-20T02:27:20;100642.16;;;34.96;40.61
75656;BME280;64252;51.094;13.714;2023-08-20T02:29:46;100634.88;;;35.03;40.32
75656;BME280;64252;51.094;13.714;2023-08-20T02:32:14;100645.56;;;35.00;40.07
75656;BME280;64252;51.094;13.714;2023-08-20T02:34:39;100642.41;;;34.79;41.00
75656;BME280;64252;51.094;13.714;2023-08-20T02:37:05;100643.44;;;35.01;40.73
75656;BME280;64252;51.094;13.714;2023-08-20T02:39:31;100644.16;;;35.07;40.44
75656;BME280;64252;51.094;13.714;2023-08-20T02:41:57;100639.47;;;34.98;40.39
75656;BME280;64252;51.094;13.714;2023-08-20T02:44:23;100636.53;;;34.55;41.39
75656;BME280;64252;51.094;13.714;2023-08-20T02:46:48;100640.97;;;34.62;41.20
75656;BME280;64252;51.094;13.714;2023-08-20T02:49:14;100637.50;;;34.63;41.13
75656;BME280;64252;51.094;13.714;2023-08-20T02:51:42;100649.72;;;34.67;41.45
75656;BME280;64252;51.094;13.714;2023-08-20T02:54:08;100635.84;;;34.19;41.65
75656;BME280;64252;51.094;13.714;2023-08-20T02:56:34;100630.28;;;34.64;40.96
75656;BME280;64252;51.094;13.714;2023-08-20T02:59:00;100631.63;;;34.63;41.36
75656;BME280;64252;51.094;13.714;2023-08-20T03:01:26;100633.28;;;34.83;41.34
75656;BME280;64252;51.094;13.714;2023-08-20T03:03:53;100633.53;;;34.61;41.59
75656;BME280;64252;51.094;13.714;2023-08-20T03:06:19;100642.56;;;34.63;41.78
75656;BME280;64252;51.094;13.714;2023-08-20T03:08:46;100642.63;;;34.82;40.96
75656;BME280;64252;51.094;13.714;2023-08-20T03:11:11;100643.09;;;34.86;40.58
75656;BME280;64252;51.094;13.714;2023-08-20T03:13:37;100641.41;;;34.71;41.47
75656;BME280;64252;51.094;13.714;2023-08-20T03:18:29;100651.75;;;34.78;41.06
75656;BME280;64252;51.094;13.714;2023-08-20T03:20:55;100650.34;;;34.60;41.12
75656;BME280;64252;51.094;13.714;2023-08-20T03:23:22;100643.72;;;34.30;41.72
75656;BME280;64252;51.094;13.714;2023-08-20T03:25:47;100646.19;;;34.50;41.48
75656;BME280;64252;51.094;13.714;2023-08-20T03:28:13;100652.66;;;34.67;41.33
75656;BME280;64252;51.094;13.714;2023-08-20T03:30:40;100653.44;;;34.44;41.53
75656;BME280;64252;51.094;13.714;2023-08-20T03:33:05;100650.81;;;34.64;41.27
75656;BME280;64252;51.094;13.714;2023-08-20T03:35:34;100651.81;;;34.72;40.96
75656;BME280;64252;51.094;13.714;2023-08-20T03:37:59;100649.91;;;34.51;41.31
75656;BME280;64252;51.094;13.714;2023-08-20T03:40:25;100656.09;;;34.71;41.29
75656;BME280;64252;51.094;13.714;2023-08-20T03:42:50;100654.34;;;34.82;41.42
75656;BME280;64252;51.094;13.714;2023-08-20T03:45:16;100652.88;;;34.94;40.44
75656;BME280;64252;51.094;13.714;2023-08-20T03:47:42;100656.13;;;34.90;41.06
75656;BME280;64252;51.094;13.714;2023-08-20T03:50:09;100659.78;;;34.96;40.35
75656;BME280;64252;51.094;13.714;2023-08-20T03:52:35;100671.91;;;34.63;41.29
75656;BME280;64252;51.094;13.714;2023-08-20T03:55:02;100679.44;;;34.83;41.40
75656;BME280;64252;51.094;13.714;2023-08-20T03:57:27;100688.25;;;34.83;41.08
75656;BME280;64252;51.094;13.714;2023-08-20T03:59:53;100686.47;;;34.74;41.36
75656;BME280;64252;51.094;13.714;2023-08-20T04:02:18;100682.84;;;34.62;41.93
75656;BME280;64252;51.094;13.714;2023-08-20T04:04:44;100686.59;;;34.33;42.26
75656;BME280;64252;51.094;13.714;2023-08-20T04:07:10;100687.09;;;34.61;41.31
75656;BME280;64252;51.094;13.714;2023-08-20T04:09:36;100686.25;;;34.66;41.53
75656;BME280;64252;51.094;13.714;2023-08-20T04:12:04;100688.22;;;34.58;41.94
75656;BME280;64252;51.094;13.714;2023-08-20T04:14:30;100698.50;;;34.46;42.41
75656;BME280;64252;51.094;13.714;2023-08-20T04:16:56;100693.19;;;34.69;41.68
75656;BME280;64252;51.094;13.714;2023-08-20T04:19:21;100697.97;;;34.42;42.01
75656;BME280;64252;51.094;13.714;2023-08-20T04:21:47;100705.66;;;34.51;42.52
75656;BME280;64252;51.094;13.714;2023-08-20T04:24:12;100712.63;;;34.72;41.58
75656;BME280;64252;51.094;13.714;2023-08-20T04:26:39;100711.78;;;34.77;41.61
75656;BME280;64252;51.094;13.714;2023-08-20T04:29:05;100711.72;;;34.28;42.54
75656;BME280;64252;51.094;13.714;2023-08-20T04:31:31;100721.34;;;34.53;42.34
75656;BME280;64252;51.094;13.714;2023-08-20T04:34:02;100712.16;;;34.62;41.78
75656;BME280;64252;51.094;13.714;2023-08-20T04:36:37;100716.00;;;34.82;41.74
75656;BME280;64252;51.094;13.714;2023-08-20T04:39:03;100730.88;;;34.89;41.50
75656;BME280;64252;51.094;13.714;2023-08-20T04:41:32;100733.47;;;34.93;41.32
75656;BME280;64252;51.094;13.714;2023-08-20T04:43:57;100728.16;;;34.91;41.49
75656;BME280;64252;51.094;13.714;2023-08-20T04:46:24;100734.03;;;34.61;41.48
75656;BME280;64252;51.094;13.714;2023-08-20T04:48:49;100735.41;;;34.60;42.40
75656;BME280;64252;51.094;13.714;2023-08-20T04:51:15;100726.88;;;34.87;41.69
75656;BME280;64252;51.094;13.714;2023-08-20T04:53:42;100731.09;;;34.91;41.39
75656;BME280;64252;51.094;13.714;2023-08-20T04:56:08;100737.84;;;35.05;41.49
75656;BME280;64252;51.094;13.714;2023-08-20T04:58:34;100735.31;;;34.12;43.24
75656;BME280;64252;51.094;13.714;2023-08-20T05:01:00;100736.09;;;34.18;43.20
75656;BME280;64252;51.094;13.714;2023-08-20T05:03:27;100729.78;;;34.62;41.94
75656;BME280;64252;51.094;13.714;2023-08-20T05:05:53;100739.34;;;34.93;41.64
75656;BME280;64252;51.094;13.714;2023-08-20T05:08:19;100739.19;;;35.28;41.04
75656;BME280;64252;51.094;13.714;2023-08-20T05:10:46;100741.50;;;35.35;40.86
75656;BME280;64252;51.094;13.714;2023-08-20T05:13:11;100744.28;;;35.46;40.64
75656;BME280;64252;51.094;13.714;2023-08-20T05:15:38;100739.84;;;34.97;41.57
75656;BME280;64252;51.094;13.714;2023-08-20T05:18:04;100742.47;;;35.43;40.81
75656;BME280;64252;51.094;13.714;2023-08-20T05:20:29;100753.06;;;35.71;40.63
75656;BME280;64252;51.094;13.714;2023-08-20T05:22:55;100751.94;;;35.36;41.44
75656;BME280;64252;51.094;13.714;2023-08-20T05:25:21;100759.53;;;36.01;40.17
75656;BME280;64252;51.094;13.714;2023-08-20T05:27:48;100755.13;;;36.26;39.98
75656;BME280;64252;51.094;13.714;2023-08-20T05:30:14;100765.09;;;35.48;41.16
75656;BME280;64252;51.094;13.714;2023-08-20T05:32:39;100765.41;;;35.26;41.86
75656;BME280;64252;51.094;13.714;2023-08-20T05:35:05;100764.75;;;34.60;43.10
75656;BME280;64252;51.094;13.714;2023-08-20T05:37:31;100763.00;;;35.25;41.80
75656;BME280;64252;51.094;13.714;2023-08-20T05:39:57;100774.38;;;35.52;40.94
75656;BME280;64252;51.094;13.714;2023-08-20T05:42:23;100779.13;;;34.34;43.55
75656;BME280;64252;51.094;13.714;2023-08-20T05:44:58;100782.00;;;35.42;41.74
75656;BME280;64252;51.094;13.714;2023-08-20T05:47:27;100779.19;;;36.43;39.73
75656;BME280;64252;51.094;13.714;2023-08-20T05:49:53;100772.72;;;34.90;42.65
75656;BME280;64252;51.094;13.714;2023-08-20T05:52:19;100773.81;;;34.32;43.71
75656;BME280;64252;51.094;13.714;2023-08-20T05:54:46;100776.75;;;35.35;42.01
75656;BME280;64252;51.094;13.714;2023-08-20T05:57:12;100780.97;;;36.33;39.98
75656;BME280;64252;51.094;13.714;2023-08-20T05:59:38;100778.06;;;36.46;39.61
75656;BME280;64252;51.094;13.714;2023-08-20T06:02:03;100790.69;;;35.91;40.96
75656;BME280;64252;51.094;13.714;2023-08-20T06:04:29;100785.50;;;36.92;38.91
75656;BME280;64252;51.094;13.714;2023-08-20T06:06:55;100789.13;;;36.40;39.99
75656;BME280;64252;51.094;13.714;2023-08-20T06:09:20;100794.81;;;36.01;41.13
75656;BME280;64252;51.094;13.714;2023-08-20T06:11:46;100799.94;;;35.39;42.27
75656;BME280;64252;51.094;13.714;2023-08-20T06:14:12;100791.34;;;34.98;42.37
75656;BME280;64252;51.094;13.714;2023-08-20T06:16:37;100798.66;;;35.10;42.48
75656;BME280;64252;51.094;13.714;2023-08-20T06:19:03;100794.03;;;35.20;41.94
75656;BME280;64252;51.094;13.714;2023-08-20T06:21:28;100798.00;;;35.65;41.45
75656;BME280;64252;51.094;13.714;2023-08-20T06:23:54;100790.84;;;36.81;39.43
75656;BME280;64252;51.094;13.714;2023-08-20T06:26:19;100795.31;;;36.69;39.46
75656;BME280;64252;51.094;13.714;2023-08-20T06:28:45;100799.34;;;36.53;39.44
75656;BME280;64252;51.094;13.714;2023-08-20T06:31:11;100796.06;;;35.49;42.16
75656;BME280;64252;51.094;13.714;2023-08-20T06:33:37;100796.78;;;35.55;41.60
75656;BME280;64252;51.094;13.714;2023-08-20T06:36:03;100804.78;;;35.36;41.63
75656;BME280;64252;51.094;13.714;2023-08-20T06:38:29;100792.91;;;35.85;40.99
75656;BME280;64252;51.094;13.714;2023-08-20T06:40:56;100792.34;;;36.56;40.10
75656;BME280;64252;51.094;13.714;2023-08-20T06:43:21;100797.78;;;35.82;40.86
75656;BME280;64252;51.094;13.714;2023-08-20T06:45:47;100800.06;;;35.89;41.10
75656;BME280;64252;51.094;13.714;2023-08-20T06:48:12;100803.81;;;35.28;42.12
75656;BME280;64252;51.094;13.714;2023-08-20T06:50:38;100809.91;;;35.54;41.55
75656;BME280;64252;51.094;13.714;2023-08-20T06:53:04;100804.22;;;35.13;43.03
75656;BME280;64252;51.094;13.714;2023-08-20T06:55:30;100814.81;;;34.98;42.76
75656;BME280;64252;51.094;13.714;2023-08-20T06:57:56;100802.88;;;34.30;44.53
75656;BME280;64252;51.094;13.714;2023-08-20T07:00:22;100815.06;;;35.24;42.50
75656;BME280;64252;51.094;13.714;2023-08-20T07:02:47;100813.78;;;36.69;39.97
75656;BME280;64252;51.094;13.714;2023-08-20T07:05:13;100810.94;;;37.61;38.57
75656;BME280;64252;51.094;13.714;2023-08-20T07:07:42;100816.41;;;37.91;37.97
75656;BME280;64252;51.094;13.714;2023-08-20T07:10:09;100830.88;;;40.12;34.81
75656;BME280;64252;51.094;13.714;2023-08-20T07:12:34;100825.63;;;39.82;34.30
75656;BME280;64252;51.094;13.714;2023-08-20T07:15:01;100835.78;;;41.06;33.81
75656;BME280;64252;51.094;13.714;2023-08-20T07:17:27;100834.78;;;40.73;33.47
75656;BME280;64252;51.094;13.714;2023-08-20T07:19:52;100843.03;;;37.39;38.09
75656;BME280;64252;51.094;13.714;2023-08-20T07:22:18;100837.53;;;37.82;37.49
75656;BME280;64252;51.094;13.714;2023-08-20T07:24:44;100843.63;;;37.97;37.41
75656;BME280;64252;51.094;13.714;2023-08-20T07:27:10;100844.69;;;39.17;35.70
75656;BME280;64252;51.094;13.714;2023-08-20T07:29:38;100849.53;;;38.86;35.97
75656;BME280;64252;51.094;13.714;2023-08-20T07:32:03;100848.88;;;39.21;35.77
75656;BME280;64252;51.094;13.714;2023-08-20T07:34:29;100848.91;;;38.80;36.86
75656;BME280;64252;51.094;13.714;2023-08-20T07:37:00;100846.88;;;39.16;35.73
75656;BME280;64252;51.094;13.714;2023-08-20T07:39:25;100840.59;;;38.37;37.03
75656;BME280;64252;51.094;13.714;2023-08-20T07:41:52;100843.44;;;38.84;36.24
75656;BME280;64252;51.094;13.714;2023-08-20T07:44:17;100844.78;;;38.62;37.27
75656;BME280;64252;51.094;13.714;2023-08-20T07:46:43;100842.91;;;39.42;35.29
75656;BME280;64252;51.094;13.714;2023-08-20T07:49:09;100845.59;;;38.83;36.71
75656;BME280;64252;51.094;13.714;2023-08-20T07:51:34;100847.53;;;39.01;37.04
75656;BME280;64252;51.094;13.714;2023-08-20T07:54:00;100841.91;;;38.90;36.56
75656;BME280;64252;51.094;13.714;2023-08-20T07:56:26;100837.78;;;37.84;37.07
75656;BME280;64252;51.094;13.714;2023-08-20T07:58:51;100833.31;;;39.21;35.83
75656;BME280;64252;51.094;13.714;2023-08-20T08:01:17;100837.44;;;39.18;35.54
75656;BME280;64252;51.094;13.714;2023-08-20T08:03:43;100838.75;;;38.47;36.04
75656;BME280;64252;51.094;13.714;2023-08-20T08:06:08;100841.78;;;39.24;35.76
75656;BME280;64252;51.094;13.714;2023-08-20T08:08:34;100840.59;;;39.48;34.71
75656;BME280;64252;51.094;13.714;2023-08-20T08:11:00;100846.91;;;39.80;34.66
75656;BME280;64252;51.094;13.714;2023-08-20T08:13:25;100857.38;;;37.95;37.55
75656;BME280;64252;51.094;13.714;2023-08-20T08:15:51;100854.31;;;38.00;37.00
75656;BME280;64252;51.094;13.714;2023-08-20T08:18:18;100861.91;;;38.09;36.40
75656;BME280;64252;51.094;13.714;2023-08-20T08:20:44;100861.59;;;39.37;35.01
75656;BME280;64252;51.094;13.714;2023-08-20T08:23:10;100870.44;;;40.52;33.26
75656;BME280;64252;51.094;13.714;2023-08-20T08:25:35;100873.47;;;40.75;32.94
75656;BME280;64252;51.094;13.714;2023-08-20T08:28:03;100869.56;;;39.78;34.58
75656;BME280;64252;51.094;13.714;2023-08-20T08:30:28;100868.25;;;39.58;33.64
75656;BME280;64252;51.094;13.714;2023-08-20T08:32:56;100867.97;;;39.41;34.59
75656;BME280;64252;51.094;13.714;2023-08-20T08:35:21;100873.28;;;41.26;32.53
75656;BME280;64252;51.094;13.714;2023-08-20T08:37:47;100871.09;;;41.42;31.87
75656;BME280;64252;51.094;13.714;2023-08-20T08:40:15;100876.44;;;38.95;35.72
75656;BME280;64252;51.094;13.714;2023-08-20T08:43:11;100876.72;;;39.05;35.57
75656;BME280;64252;51.094;13.714;2023-08-20T08:45:45;100875.09;;;38.29;36.97
75656;BME280;64252;51.094;13.714;2023-08-20T08:48:16;100884.94;;;37.45;38.68
75656;BME280;64252;51.094;13.714;2023-08-20T08:50:43;100887.47;;;37.54;38.39
75656;BME280;64252;51.094;13.714;2023-08-20T08:53:10;100883.78;;;38.13;37.27
75656;BME280;64252;51.094;13.714;2023-08-20T08:55:35;100888.41;;;36.72;40.01
75656;BME280;64252;51.094;13.714;2023-08-20T08:58:04;100892.72;;;36.71;40.13
75656;BME280;64252;51.094;13.714;2023-08-20T09:03:20;100898.50;;;36.26;41.40
75656;BME280;64252;51.094;13.714;2023-08-20T09:06:01;100903.75;;;36.97;40.43
75656;BME280;64252;51.094;13.714;2023-08-20T09:08:31;100887.34;;;37.86;39.17
75656;BME280;64252;51.094;13.714;2023-08-20T09:11:03;100896.06;;;38.38;37.96
75656;BME280;64252;51.094;13.714;2023-08-20T09:15:58;100903.34;;;37.90;39.31
75656;BME280;64252;51.094;13.714;2023-08-20T09:18:24;100905.47;;;37.76;38.95
75656;BME280;64252;51.094;13.714;2023-08-20T09:20:50;100904.78;;;38.10;38.93
75656;BME280;64252;51.094;13.714;2023-08-20T09:23:17;100908.47;;;38.37;37.95
75656;BME280;64252;51.094;13.714;2023-08-20T09:25:43;100912.06;;;38.56;37.21
75656;BME280;64252;51.094;13.714;2023-08-20T09:28:10;100917.38;;;37.84;38.38
75656;BME280;64252;51.094;13.714;2023-08-20T09:30:36;100914.00;;;37.54;39.33
75656;BME280;64252;51.094;13.714;2023-08-20T09:33:10;100914.47;;;38.44;37.40
75656;BME280;64252;51.094;13.714;2023-08-20T09:35:36;100919.19;;;38.00;37.89
75656;BME280;64252;51.094;13.714;2023-08-20T09:38:03;100916.94;;;37.80;38.34
75656;BME280;64252;51.094;13.714;2023-08-20T09:40:30;100929.66;;;38.82;36.69
75656;BME280;64252;51.094;13.714;2023-08-20T09:42:56;100919.59;;;38.98;35.96
75656;BME280;64252;51.094;13.714;2023-08-20T09:45:24;100917.97;;;38.56;36.63
75656;BME280;64252;51.094;13.714;2023-08-20T09:47:55;100910.59;;;39.53;35.21
75656;BME280;64252;51.094;13.714;2023-08-20T09:50:22;100921.56;;;38.62;35.65
75656;BME280;64252;51.094;13.714;2023-08-20T09:52:57;100917.16;;;37.69;37.37
75656;BME280;64252;51.094;13.714;2023-08-20T09:55:29;100914.84;;;37.49;38.43
75656;BME280;64252;51.094;13.714;2023-08-20T09:57:56;100914.78;;;37.94;38.08
75656;BME280;64252;51.094;13.714;2023-08-20T10:00:22;100914.47;;;38.99;36.25
75656;BME280;64252;51.094;13.714;2023-08-20T10:02:48;100911.84;;;38.41;37.27
75656;BME280;64252;51.094;13.714;2023-08-20T10:05:14;100915.84;;;38.30;37.15
75656;BME280;64252;51.094;13.714;2023-08-20T10:07:42;100912.25;;;38.92;36.09
75656;BME280;64252;51.094;13.714;2023-08-20T10:10:09;100902.88;;;37.99;36.93
75656;BME280;64252;51.094;13.714;2023-08-20T10:12:39;100906.59;;;39.43;35.38
75656;BME280;64252;51.094;13.714;2023-08-20T10:15:07;100904.09;;;39.05;35.46
75656;BME280;64252;51.094;13.714;2023-08-20T10:17:33;100893.69;;;39.61;34.53
75656;BME280;64252;51.094;13.714;2023-08-20T10:20:04;100900.84;;;39.17;34.79
75656;BME280;64252;51.094;13.714;2023-08-20T10:22:37;100894.72;;;39.15;35.55
75656;BME280;64252;51.094;13.714;2023-08-20T10:25:07;100886.56;;;39.57;34.60
75656;BME280;64252;51.094;13.714;2023-08-20T10:27:35;100893.19;;;40.14;33.95
75656;BME280;64252;51.094;13.714;2023-08-20T10:30:10;100877.97;;;40.53;32.87
75656;BME280;64252;51.094;13.714;2023-08-20T10:32:49;100880.31;;;40.47;32.77
75656;BME280;64252;51.094;13.714;2023-08-20T10:35:16;100881.44;;;39.57;33.74
75656;BME280;64252;51.094;13.714;2023-08-20T10:40:58;100872.97;;;39.89;32.93
75656;BME280;64252;51.094;13.714;2023-08-20T10:43:49;100869.66;;;40.59;32.23
75656;BME280;64252;51.094;13.714;2023-08-20T10:46:17;100880.53;;;40.49;32.17
75656;BME280;64252;51.094;13.714;2023-08-20T10:48:52;100877.25;;;39.45;33.35
75656;BME280;64252;51.094;13.714;2023-08-20T10:51:24;100878.16;;;40.04;32.87
75656;BME280;64252;51.094;13.714;2023-08-20T10:54:04;100871.72;;;39.21;34.24
75656;BME280;64252;51.094;13.714;2023-08-20T10:59:28;100869.91;;;40.69;32.04
75656;BME280;64252;51.094;13.714;2023-08-20T11:01:58;100864.78;;;40.11;33.20
75656;BME280;64252;51.094;13.714;2023-08-20T11:04:28;100868.25;;;40.45;31.75
75656;BME280;64252;51.094;13.714;2023-08-20T11:06:56;100876.56;;;39.96;32.22
75656;BME280;64252;51.094;13.714;2023-08-20T11:09:23;100868.56;;;40.78;31.15
75656;BME280;64252;51.094;13.714;2023-08-20T11:11:49;100875.63;;;41.58;30.42
75656;BME280;64252;51.094;13.714;2023-08-20T11:14:15;100861.69;;;41.98;29.71
75656;BME280;64252;51.094;13.714;2023-08-20T11:16:43;100872.50;;;41.26;30.71
75656;BME280;64252;51.094;13.714;2023-08-20T11:19:12;100863.16;;;42.22;29.78
75656;BME280;64252;51.094;13.714;2023-08-20T11:21:39;100864.00;;;41.37;31.10
75656;BME280;64252;51.094;13.714;2023-08-20T11:24:06;100858.69;;;41.13;30.95
75656;BME280;64252;51.094;13.714;2023-08-20T11:26:35;100849.72;;;41.58;30.36
75656;BME280;64252;51.094;13.714;2023-08-20T11:29:08;100854.66;;;41.71;29.91
75656;BME280;64252;51.094;13.714;2023-08-20T11:31:35;100852.72;;;41.51;30.19
75656;BME280;64252;51.094;13.714;2023-08-20T11:34:02;100856.53;;;41.06;31.52
75656;BME280;64252;51.094;13.714;2023-08-20T11:36:28;100850.97;;;40.95;31.82
75656;BME280;64252;51.094;13.714;2023-08-20T11:38:54;100847.19;;;39.98;32.82
75656;BME280;64252;51.094;13.714;2023-08-20T11:41:24;100844.25;;;41.47;30.96
75656;BME280;64252;51.094;13.714;2023-08-20T11:43:51;100840.13;;;40.82;31.63
75656;BME280;64252;51.094;13.714;2023-08-20T11:46:21;100846.63;;;40.81;31.12
75656;BME280;64252;51.094;13.714;2023-08-20T11:49:06;100829.22;;;41.23;30.34
75656;BME280;64252;51.094;13.714;2023-08-20T11:51:39;100839.81;;;40.42;32.02
75656;BME280;64252;51.094;13.714;2023-08-20T11:54:11;100840.47;;;40.78;31.53
75656;BME280;64252;51.094;13.714;2023-08-20T11:56:47;100832.38;;;41.47;31.10
75656;BME280;64252;51.094;13.714;2023-08-20T11:59:14;100835.16;;;40.85;31.25
75656;BME280;64252;51.094;13.714;2023-08-20T12:01:40;100833.66;;;41.77;30.23
75656;BME280;64252;51.094;13.714;2023-08-20T12:04:10;100828.53;;;42.17;29.33
75656;BME280;64252;51.094;13.714;2023-08-20T12:06:36;100813.50;;;42.15;30.41
75656;BME280;64252;51.094;13.714;2023-08-20T12:09:24;100827.72;;;41.77;30.15
75656;BME280;64252;51.094;13.714;2023-08-20T12:11:52;100814.25;;;42.23;29.96
75656;BME280;64252;51.094;13.714;2023-08-20T12:14:18;100810.78;;;42.74;29.77
75656;BME280;64252;51.094;13.714;2023-08-20T12:16:45;100816.78;;;42.34;29.40
75656;BME280;64252;51.094;13.714;2023-08-20T12:19:12;100814.56;;;42.42;29.29
75656;BME280;64252;51.094;13.714;2023-08-20T12:21:37;100808.69;;;43.09;28.87
75656;BME280;64252;51.094;13.714;2023-08-20T12:24:03;100811.28;;;41.83;29.64
75656;BME280;64252;51.094;13.714;2023-08-20T12:26:29;100810.78;;;41.39;30.67
75656;BME280;64252;51.094;13.714;2023-08-20T12:28:55;100812.22;;;42.66;28.89
75656;BME280;64252;51.094;13.714;2023-08-20T12:31:20;100813.59;;;41.52;29.74
75656;BME280;64252;51.094;13.714;2023-08-20T12:33:46;100815.41;;;41.95;29.53
75656;BME280;64252;51.094;13.714;2023-08-20T12:36:12;100805.94;;;41.82;29.71
75656;BME280;64252;51.094;13.714;2023-08-20T12:38:38;100804.91;;;41.32;31.20
75656;BME280;64252;51.094;13.714;2023-08-20T12:41:04;100804.66;;;42.40;29.90
75656;BME280;64252;51.094;13.714;2023-08-20T12:43:30;100810.09;;;42.26;29.26
75656;BME280;64252;51.094;13.714;2023-08-20T12:45:56;100804.84;;;41.54;30.18
75656;BME280;64252;51.094;13.714;2023-08-20T12:48:22;100808.09;;;42.61;29.19
75656;BME280;64252;51.094;13.714;2023-08-20T12:50:47;100794.59;;;43.10;28.92
75656;BME280;64252;51.094;13.714;2023-08-20T12:53:13;100802.19;;;41.81;29.98
75656;BME280;64252;51.094;13.714;2023-08-20T12:55:38;100802.19;;;41.89;30.27
75656;BME280;64252;51.094;13.714;2023-08-20T12:58:04;100784.97;;;42.77;28.70